Time;durP1;ratioP1;P1;durP2;ratioP2;P2;SDS_P1;SDS_P2;PMS_P1;PMS_P2;Temp;Humidity;BMP_temperature;BMP_pressure;BME280_temperature;BME280_humidity;BME280_pressure;Samples;Min_cycle;Max_cycle;Signal;HPM_P1;HPM_P2
2022/03/21 00:00:44;;;;;;;13.23;5.93;;;;;;;-1.30;58.92;96393.72;5088253;28;20650;-81
2022/03/21 00:03:14;;;;;;;18.48;7.38;;;;;;;-1.32;58.61;96388.63;5088116;28;20232;-80
2022/03/21 00:05:41;;;;;;;24.98;8.45;;;;;;;-1.25;58.94;96386.78;5068307;28;20205;-80
2022/03/21 00:08:11;;;;;;;15.90;7.72;;;;;;;-1.19;57.86;96385.91;5081086;28;20203;-80
2022/03/21 00:10:38;;;;;;;18.95;7.40;;;;;;;-1.17;60.97;96393.69;5087106;28;20188;-81
2022/03/21 00:13:06;;;;;;;13.80;6.55;;;;;;;-1.27;59.23;96385.34;5087953;28;20213;-81
2022/03/21 00:15:34;;;;;;;15.27;6.93;;;;;;;-1.17;61.19;96385.72;5082109;28;20544;-80
2022/03/21 00:18:02;;;;;;;14.68;7.07;;;;;;;-1.20;60.40;96386.13;5080171;28;20226;-80
2022/03/21 00:20:30;;;;;;;14.32;6.45;;;;;;;-1.16;61.15;96387.34;5085503;28;20772;-80
2022/03/21 00:22:57;;;;;;;11.80;6.97;;;;;;;-1.20;59.28;96386.13;5086825;28;20233;-80
2022/03/21 00:25:26;;;;;;;18.27;6.85;;;;;;;-1.33;59.88;96387.00;5065195;28;20214;-80
2022/03/21 00:27:53;;;;;;;11.70;6.05;;;;;;;-1.35;60.36;96385.56;5082835;28;20230;-80
2022/03/21 00:30:20;;;;;;;12.40;6.30;;;;;;;-1.23;60.85;96384.69;5083212;28;20209;-81
2022/03/21 00:32:47;;;;;;;13.15;6.88;;;;;;;-1.39;59.50;96377.22;5080884;28;20211;-79
2022/03/21 00:35:15;;;;;;;11.68;6.10;;;;;;;-1.39;59.17;96389.69;5084556;28;20223;-79
2022/03/21 00:37:44;;;;;;;16.77;7.85;;;;;;;-1.37;59.17;96385.81;5084189;28;20239;-80
2022/03/21 00:40:12;;;;;;;35.33;11.15;;;;;;;-1.37;58.04;96380.47;5064166;28;20214;-79
2022/03/21 00:42:41;;;;;;;18.73;8.02;;;;;;;-1.49;58.49;96377.63;5078217;28;20202;-79
2022/03/21 00:45:10;;;;;;;11.70;5.75;;;;;;;-1.33;61.83;96375.53;5081902;28;20709;-80
2022/03/21 00:47:38;;;;;;;9.25;5.13;;;;;;;-1.31;57.39;96373.50;5087388;28;20321;-80
2022/03/21 00:50:07;;;;;;;9.50;5.07;;;;;;;-1.25;59.14;96364.69;5085837;28;20294;-79
2022/03/21 00:52:39;;;;;;;12.52;6.00;;;;;;;-1.26;56.26;96363.06;5079890;28;20210;-79
2022/03/21 00:55:07;;;;;;;13.23;6.05;;;;;;;-1.34;58.48;96363.28;5079904;28;20665;-79
2022/03/21 00:57:34;;;;;;;8.73;4.03;;;;;;;-0.96;54.83;96363.34;5085433;28;20701;-80
2022/03/21 01:00:03;;;;;;;12.25;6.85;;;;;;;-1.38;56.10;96367.41;5087079;28;20251;-80
2022/03/21 01:02:30;;;;;;;13.55;6.80;;;;;;;-1.48;55.65;96373.13;5080773;28;20707;-80
2022/03/21 01:04:57;;;;;;;22.05;8.77;;;;;;;-1.57;56.69;96359.28;5080394;28;20230;-79
2022/03/21 01:07:24;;;;;;;15.88;6.60;;;;;;;-1.62;56.62;96356.41;5085514;28;20325;-81
2022/03/21 01:09:51;;;;;;;6.28;3.53;;;;;;;-1.47;55.35;96356.97;5087104;28;20557;-80
2022/03/21 01:12:17;;;;;;;10.15;4.35;;;;;;;-1.53;57.97;96349.88;5081141;28;20198;-80
2022/03/21 01:14:44;;;;;;;14.77;6.03;;;;;;;-1.62;58.18;96350.28;5079950;28;20207;-80
2022/03/21 01:17:13;;;;;;;14.02;6.15;;;;;;;-1.60;57.65;96343.75;5085007;28;20681;-80
2022/03/21 01:19:40;;;;;;;13.45;7.10;;;;;;;-1.69;56.57;96345.00;5086632;28;20214;-79
2022/03/21 01:22:06;;;;;;;14.10;6.60;;;;;;;-1.80;56.98;96343.00;5081357;28;20213;-80
2022/03/21 01:24:35;;;;;;;11.73;6.22;;;;;;;-1.88;57.71;96346.66;5076377;28;20238;-80
2022/03/21 01:27:03;;;;;;;10.15;5.18;;;;;;;-1.83;58.62;96338.09;5080939;28;20222;-80
2022/03/21 01:29:29;;;;;;;17.10;7.50;;;;;;;-1.86;58.04;96338.50;5078863;28;20195;-80
2022/03/21 01:31:56;;;;;;;17.05;7.88;;;;;;;-1.68;57.63;96336.00;5083057;28;20215;-81
2022/03/21 01:34:26;;;;;;;12.77;5.68;;;;;;;-1.65;55.93;96335.59;5086116;28;20899;-80
2022/03/21 01:36:53;;;;;;;11.52;5.53;;;;;;;-1.65;56.34;96329.47;5082219;28;20209;-80
2022/03/21 01:39:20;;;;;;;5.47;2.75;;;;;;;-1.71;57.51;96333.75;5079310;28;20198;-80
2022/03/21 01:41:47;;;;;;;9.75;5.30;;;;;;;-1.69;57.09;96329.06;5082353;28;20245;-79
2022/03/21 01:44:14;;;;;;;14.55;5.65;;;;;;;-1.67;57.65;96315.56;5086275;28;20206;-80
2022/03/21 01:46:42;;;;;;;18.50;8.80;;;;;;;-1.87;59.05;96315.63;5083306;28;20820;-80
2022/03/21 01:49:10;;;;;;;12.80;6.78;;;;;;;-2.00;59.77;96320.97;5078930;28;20248;-80
2022/03/21 01:51:41;;;;;;;5.50;2.90;;;;;;;-2.07;58.97;96322.81;5080561;28;20608;-80
2022/03/21 01:56:52;;;;;;;12.02;5.45;;;;;;;-2.20;60.16;96316.50;5077958;28;20598;-80
2022/03/21 01:59:20;;;;;;;12.02;5.70;;;;;;;-2.11;63.39;96318.94;5084321;28;20203;-81
2022/03/21 02:01:48;;;;;;;12.95;6.25;;;;;;;-2.24;60.75;96325.91;5058284;28;20730;-80
2022/03/21 02:04:16;;;;;;;6.25;4.03;;;;;;;-2.23;60.44;96316.09;5072084;28;20199;-80
2022/03/21 02:06:45;;;;;;;11.55;5.18;;;;;;;-2.35;61.57;96310.59;5085182;28;20563;-80
2022/03/21 02:09:13;;;;;;;9.90;5.38;;;;;;;-2.30;61.01;96310.78;5071305;28;20248;-80
2022/03/21 02:11:40;;;;;;;15.45;7.35;;;;;;;-2.35;62.51;96318.56;5085086;28;20202;-80
2022/03/21 02:14:08;;;;;;;9.38;4.25;;;;;;;-2.43;61.68;96325.91;5081034;28;20615;-80
2022/03/21 02:16:37;;;;;;;19.40;6.80;;;;;;;-2.46;62.61;96321.81;5078469;28;20233;-80
2022/03/21 02:19:08;;;;;;;20.02;7.82;;;;;;;-2.45;62.10;96325.28;5082091;28;20223;-80
2022/03/21 02:21:48;;;;;;;18.30;6.65;;;;;;;-2.57;62.13;96325.09;5089347;28;20233;-80
2022/03/21 02:24:23;;;;;;;8.75;5.40;;;;;;;-2.52;63.38;96325.28;5090994;28;20214;-80
2022/03/21 02:26:53;;;;;;;15.70;6.15;;;;;;;-2.48;63.36;96310.63;5058376;28;20306;-80
2022/03/21 02:29:23;;;;;;;13.35;6.38;;;;;;;-2.38;62.74;96318.16;5085888;28;20230;-81
2022/03/21 02:31:50;;;;;;;10.13;4.57;;;;;;;-2.32;64.87;96322.63;5091200;28;20198;-80
2022/03/21 02:34:18;;;;;;;17.75;6.78;;;;;;;-2.29;63.95;96317.72;5077325;28;20233;-80
2022/03/21 02:36:46;;;;;;;12.80;5.90;;;;;;;-2.26;63.96;96322.63;5091161;28;20202;-80
2022/03/21 02:39:14;;;;;;;11.55;5.95;;;;;;;-2.16;62.29;96328.34;5077406;28;20680;-82
2022/03/21 02:41:41;;;;;;;11.70;6.25;;;;;;;-2.33;63.69;96326.31;5071268;28;20278;-80
2022/03/21 02:44:10;;;;;;;12.32;6.55;;;;;;;-2.34;64.04;96345.91;5080942;28;20209;-80
2022/03/21 02:46:37;;;;;;;12.93;6.32;;;;;;;-2.19;65.24;96330.59;5081145;28;20198;-81
2022/03/21 02:49:04;;;;;;;8.68;5.10;;;;;;;-2.06;63.73;96337.72;5077700;28;20233;-81
2022/03/21 02:51:37;;;;;;;11.95;5.50;;;;;;;-2.04;61.02;96335.66;5080203;28;20315;-81
2022/03/21 02:54:04;;;;;;;6.47;3.67;;;;;;;-2.16;60.07;96338.94;5076911;28;20194;-81
2022/03/21 02:56:31;;;;;;;3.20;1.88;;;;;;;-1.81;55.96;96346.66;5079473;28;20206;-81
2022/03/21 02:58:58;;;;;;;7.65;3.25;;;;;;;-1.48;54.98;96336.75;5084662;28;20218;-80
2022/03/21 03:01:26;;;;;;;5.40;3.50;;;;;;;-1.21;52.54;96336.63;5083619;28;20234;-80
2022/03/21 03:03:53;;;;;;;8.10;3.97;;;;;;;-1.27;54.25;96340.97;5077558;28;20241;-81
2022/03/21 03:06:20;;;;;;;6.55;2.42;;;;;;;-1.01;51.13;96336.56;5078724;28;20203;-80
2022/03/21 03:08:47;;;;;;;8.07;3.70;;;;;;;-0.83;49.94;96334.81;5083583;28;20226;-80
2022/03/21 03:11:14;;;;;;;11.77;4.95;;;;;;;-1.04;52.99;96337.78;5083895;28;20210;-81
2022/03/21 03:13:41;;;;;;;3.72;2.28;;;;;;;-0.93;50.78;96329.13;5077473;28;20208;-80
2022/03/21 03:16:08;;;;;;;7.30;3.95;;;;;;;-0.87;50.59;96333.59;5078280;28;20227;-81
2022/03/21 03:18:36;;;;;;;13.95;4.72;;;;;;;-0.84;51.19;96333.19;5084272;28;20244;-81
2022/03/21 03:21:03;;;;;;;5.40;2.33;;;;;;;-0.82;49.74;96331.09;5084074;28;20194;-81
2022/03/21 03:23:32;;;;;;;8.73;3.00;;;;;;;-0.73;49.11;96327.19;5057417;28;20205;-80
2022/03/21 03:26:01;;;;;;;6.13;3.45;;;;;;;-0.63;48.67;96325.88;5070722;28;20202;-80
2022/03/21 03:28:29;;;;;;;7.43;3.33;;;;;;;-0.47;49.17;96328.00;5070059;28;20856;-81
2022/03/21 03:30:57;;;;;;;9.18;5.22;;;;;;;-0.47;49.17;96333.34;5083914;28;20198;-81
2022/03/21 03:33:24;;;;;;;8.77;4.00;;;;;;;-0.53;50.05;96323.53;5078741;28;20234;-81
2022/03/21 03:35:53;;;;;;;5.93;3.45;;;;;;;-0.52;49.24;96333.16;5077566;28;20273;-81
2022/03/21 03:38:20;;;;;;;18.00;7.05;;;;;;;-0.66;50.95;96331.63;5081940;28;20199;-81
2022/03/21 03:40:47;;;;;;;13.77;6.50;;;;;;;-0.60;51.17;96328.13;5081194;28;20201;-81
2022/03/21 03:43:16;;;;;;;13.75;5.45;;;;;;;-0.67;49.50;96322.81;5068852;28;20209;-81
2022/03/21 03:45:43;;;;;;;7.53;4.32;;;;;;;-0.65;50.36;96325.28;5077585;28;20224;-81
2022/03/21 03:48:10;;;;;;;9.30;4.82;;;;;;;-0.77;50.73;96320.66;5081513;28;20297;-80
2022/03/21 03:50:37;;;;;;;9.00;5.15;;;;;;;-0.99;51.05;96334.50;5083413;28;20238;-81
2022/03/21 03:53:06;;;;;;;10.07;5.70;;;;;;;-1.06;51.60;96331.88;5081053;28;20264;-82
2022/03/21 03:55:32;;;;;;;11.43;5.63;;;;;;;-1.22;52.07;96340.31;5077654;28;20224;-81
2022/03/21 03:57:59;;;;;;;13.85;5.03;;;;;;;-1.23;52.38;96330.75;5080302;28;20305;-81
2022/03/21 04:00:27;;;;;;;9.98;4.82;;;;;;;-1.09;51.57;96329.63;5084123;28;20260;-81
2022/03/21 04:05:38;;;;;;;12.68;5.28;;;;;;;-1.12;52.22;96324.75;5076788;28;20201;-81
2022/03/21 04:08:06;;;;;;;3.95;2.63;;;;;;;-0.89;50.13;96326.88;5077388;28;20226;-81
2022/03/21 04:10:33;;;;;;;10.32;4.60;;;;;;;-0.88;52.66;96320.53;5063789;28;20203;-82
2022/03/21 04:13:01;;;;;;;11.35;4.70;;;;;;;-0.79;50.89;96311.25;5077144;28;20199;-82
2022/03/21 04:15:27;;;;;;;9.13;4.95;;;;;;;-0.81;53.23;96307.97;5083340;28;20783;-81
2022/03/21 04:17:59;;;;;;;16.73;5.25;;;;;;;-0.79;51.43;96309.41;5083932;28;20206;-81
2022/03/21 04:20:26;;;;;;;9.98;4.80;;;;;;;-0.83;51.94;96313.53;5074380;28;20247;-81
2022/03/21 04:22:53;;;;;;;10.98;4.95;;;;;;;-0.94;51.90;96308.88;5073914;28;20211;-81
2022/03/21 04:25:22;;;;;;;7.15;4.68;;;;;;;-0.95;51.41;96320.53;5082349;28;20206;-81
2022/03/21 04:27:49;;;;;;;4.35;2.20;;;;;;;-0.94;50.91;96316.84;5080230;28;20234;-80
2022/03/21 04:30:16;;;;;;;25.20;8.27;;;;;;;-1.04;51.69;96319.19;5076829;28;20208;-81
2022/03/21 04:32:43;;;;;;;15.90;6.70;;;;;;;-0.98;51.08;96315.69;5071543;28;20222;-82
2022/03/21 04:35:11;;;;;;;13.88;7.55;;;;;;;-0.76;49.86;96318.81;5084981;28;20207;-82
2022/03/21 04:37:38;;;;;;;17.40;5.45;;;;;;;-0.74;51.27;96317.56;5087194;28;20247;-81
2022/03/21 04:40:07;;;;;;;18.13;7.80;;;;;;;-0.76;50.15;96314.28;5083438;28;20194;-82
2022/03/21 04:42:35;;;;;;;15.38;8.57;;;;;;;-0.69;50.97;96313.44;5066657;28;20202;-82
2022/03/21 04:45:02;;;;;;;21.85;5.57;;;;;;;-0.60;50.51;96307.63;5072982;28;20330;-81
2022/03/21 04:47:29;;;;;;;13.73;6.25;;;;;;;-0.49;49.91;96316.75;5075549;28;20234;-81
2022/03/21 04:49:56;;;;;;;5.50;3.70;;;;;;;-0.19;48.64;96309.75;5082365;28;20233;-82
2022/03/21 04:52:23;;;;;;;7.65;4.75;;;;;;;0.31;49.76;96309.66;5087354;28;20206;-82
2022/03/21 04:54:50;;;;;;;12.23;6.15;;;;;;;0.88;48.55;96310.22;5062671;28;20207;-85
2022/03/21 04:57:21;;;;;;;10.25;5.30;;;;;;;1.35;47.28;96301.38;5071743;28;20431;-83
2022/03/21 04:59:49;;;;;;;15.00;4.93;;;;;;;1.42;45.06;96302.06;5086209;28;20206;-77
2022/03/21 05:02:16;;;;;;;6.53;3.40;;;;;;;1.56;44.04;96299.19;5079870;28;20658;-79
2022/03/21 05:04:43;;;;;;;4.45;1.95;;;;;;;1.75;43.94;96306.06;5081820;28;20211;-81
2022/03/21 05:07:13;;;;;;;19.13;5.35;;;;;;;2.25;43.11;96306.44;5087217;28;20206;-81
2022/03/21 05:09:40;;;;;;;7.13;3.20;;;;;;;2.28;42.16;96308.63;5073003;28;20586;-81
2022/03/21 05:12:09;;;;;;;6.60;3.13;;;;;;;2.48;41.85;96310.94;5086651;28;20676;-82
2022/03/21 05:14:36;;;;;;;10.82;4.30;;;;;;;2.77;41.41;96309.94;5073297;28;20247;-81
2022/03/21 05:17:05;;;;;;;9.45;4.50;;;;;;;3.13;40.87;96318.69;5059682;28;20328;-79
2022/03/21 05:19:35;;;;;;;6.05;3.55;;;;;;;3.27;39.82;96314.66;5086533;28;20237;-82
2022/03/21 05:22:02;;;;;;;3.60;2.33;;;;;;;3.34;39.50;96320.69;5067074;28;20200;-81
2022/03/21 05:35:55;;;;;;;13.38;4.82;;;;;;;4.07;38.12;96314.41;5018189;28;20268;-83
2022/03/21 05:38:24;;;;;;;6.18;3.10;;;;;;;4.44;37.19;96308.50;5053055;28;20287;-81
2022/03/21 05:40:53;;;;;;;21.05;6.50;;;;;;;4.98;37.28;96315.66;5077958;28;20197;-82
2022/03/21 05:43:20;;;;;;;10.27;5.15;;;;;;;5.27;36.29;96318.94;5072226;28;20231;-77
2022/03/21 05:45:49;;;;;;;8.70;3.50;;;;;;;5.09;35.95;96310.38;5086336;28;20222;-82
2022/03/21 05:51:02;;;;;;;5.22;3.45;;;;;;;5.51;35.78;96303.31;5085649;28;20720;-80
2022/03/21 05:53:29;;;;;;;10.05;4.20;;;;;;;5.46;35.36;96305.16;5072929;28;20211;-81
2022/03/21 05:55:56;;;;;;;7.00;4.07;;;;;;;5.43;35.65;96306.47;5085594;28;20226;-81
2022/03/21 05:58:23;;;;;;;7.25;4.05;;;;;;;5.94;34.90;96317.72;5086009;28;20203;-78
2022/03/21 06:00:50;;;;;;;11.38;5.25;;;;;;;6.63;34.00;96299.63;5078982;28;20233;-83
2022/03/21 06:03:18;;;;;;;11.65;5.05;;;;;;;6.76;33.44;96301.03;5078609;28;20206;-79
2022/03/21 06:05:45;;;;;;;5.18;3.55;;;;;;;7.06;32.83;96298.47;5084876;28;20199;-78
2022/03/21 06:08:13;;;;;;;15.55;6.28;;;;;;;7.20;32.90;96308.75;5087118;28;20709;-82
2022/03/21 06:10:39;;;;;;;8.25;4.72;;;;;;;7.54;32.03;96301.84;5084048;28;20222;-83
2022/03/21 06:13:08;;;;;;;10.07;3.72;;;;;;;7.25;32.59;96312.28;5073715;28;20203;-79
2022/03/21 06:15:35;;;;;;;7.95;3.78;;;;;;;6.81;33.17;96311.84;5084872;28;20223;-83
2022/03/21 06:18:02;;;;;;;15.65;8.95;;;;;;;6.92;33.53;96316.19;5084821;28;20238;-81
2022/03/21 06:20:31;;;;;;;14.90;7.55;;;;;;;7.37;31.75;96303.97;5080000;28;20248;-81
2022/03/21 06:22:58;;;;;;;12.68;7.55;;;;;;;7.07;32.13;96310.88;5077095;28;20252;-86
2022/03/21 06:25:25;;;;;;;9.50;5.03;;;;;;;6.58;33.36;96317.63;5081159;28;20739;-80
2022/03/21 06:27:52;;;;;;;7.00;3.65;;;;;;;6.40;33.67;96317.00;5079335;28;20576;-81
2022/03/21 06:30:19;;;;;;;9.38;5.32;;;;;;;6.64;33.63;96320.09;5083369;28;20811;-86
2022/03/21 06:32:46;;;;;;;9.95;5.32;;;;;;;6.94;32.83;96308.66;5085331;28;20219;-81
2022/03/21 06:35:13;;;;;;;5.55;3.35;;;;;;;6.91;32.69;96311.88;5081917;28;20205;-81
2022/03/21 06:37:42;;;;;;;6.45;4.00;;;;;;;6.72;32.77;96308.00;5078374;28;20206;-83
2022/03/21 06:40:10;;;;;;;11.45;6.32;;;;;;;7.17;31.97;96312.78;5081447;28;20678;-86
2022/03/21 06:42:38;;;;;;;11.43;5.82;;;;;;;6.63;32.83;96312.28;5071833;28;20207;-81
2022/03/21 06:45:06;;;;;;;16.85;5.55;;;;;;;8.27;31.49;96288.91;5072118;28;20210;-82
2022/03/21 06:47:33;;;;;;;11.98;5.07;;;;;;;9.17;30.05;96288.94;5058035;28;20211;-81
2022/03/21 06:50:00;;;;;;;8.13;3.85;;;;;;;8.31;30.13;96298.09;5082485;28;20602;-81
2022/03/21 06:52:26;;;;;;;12.73;6.72;;;;;;;7.95;31.37;96296.47;5077070;28;20213;-80
2022/03/21 06:54:55;;;;;;;8.10;4.53;;;;;;;7.94;30.50;96306.47;5079134;28;20225;-85
2022/03/21 06:57:22;;;;;;;14.27;5.88;;;;;;;8.15;31.05;96296.50;5084530;28;20554;-82
2022/03/21 06:59:49;;;;;;;9.25;4.25;;;;;;;6.96;31.51;96325.38;5082978;28;20309;-84
2022/03/21 07:02:17;;;;;;;5.68;3.97;;;;;;;6.16;33.51;96310.34;5072084;28;20732;-82
2022/03/21 07:04:44;;;;;;;7.35;4.30;;;;;;;6.51;33.25;96312.50;5084278;28;20233;-80
2022/03/21 07:07:11;;;;;;;13.25;6.00;;;;;;;6.85;33.20;96310.22;5071614;28;20252;-81
2022/03/21 07:09:38;;;;;;;10.75;4.90;;;;;;;6.47;33.55;96313.25;5071102;28;20744;-83
2022/03/21 07:12:07;;;;;;;10.68;4.20;;;;;;;6.10;34.04;96308.72;5091344;28;20210;-80
2022/03/21 07:14:34;;;;;;;5.35;3.20;;;;;;;5.59;34.69;96304.75;5077816;28;20218;-80
2022/03/21 07:17:01;;;;;;;9.38;4.35;;;;;;;5.40;35.03;96306.97;5064993;28;20214;-82
2022/03/21 07:19:28;;;;;;;10.57;5.65;;;;;;;6.21;34.69;96293.44;5077674;28;20199;-81
2022/03/21 07:21:55;;;;;;;7.03;3.58;;;;;;;6.66;33.38;96287.53;5083728;28;20246;-81
2022/03/21 07:24:22;;;;;;;9.82;4.75;;;;;;;5.85;33.90;96297.72;5070429;28;20195;-84
2022/03/21 07:26:48;;;;;;;8.15;5.15;;;;;;;5.13;35.78;96300.78;5083493;28;20195;-83
2022/03/21 07:29:17;;;;;;;8.40;4.35;;;;;;;5.25;35.83;96290.69;5071242;28;20235;-80
2022/03/21 07:31:44;;;;;;;6.45;3.58;;;;;;;5.26;35.95;96295.00;5083867;28;20218;-81
2022/03/21 07:34:12;;;;;;;9.98;6.00;;;;;;;5.46;35.35;96300.59;5085699;28;20210;-80
2022/03/21 07:36:39;;;;;;;6.93;4.28;;;;;;;5.35;35.50;96293.47;5083936;28;20267;-76
2022/03/21 07:39:06;;;;;;;15.15;5.20;;;;;;;5.54;35.64;96281.31;5084132;28;20207;-81
2022/03/21 07:41:35;;;;;;;10.63;5.80;;;;;;;5.32;35.22;96289.44;5071238;28;20210;-85
2022/03/21 07:44:02;;;;;;;8.60;4.53;;;;;;;4.96;36.07;96285.53;5084065;28;20230;-80
2022/03/21 07:49:15;;;;;;;10.52;5.28;;;;;;;4.66;36.91;96285.16;5072148;28;20226;-80
2022/03/21 07:51:43;;;;;;;12.15;5.28;;;;;;;4.83;37.57;96280.56;5058425;28;20265;-80
2022/03/21 07:54:11;;;;;;;7.82;4.32;;;;;;;4.80;36.94;96291.78;5057838;28;20669;-81
2022/03/21 07:56:38;;;;;;;5.53;3.58;;;;;;;4.58;37.11;96282.94;5087427;28;20638;-81
2022/03/21 07:59:05;;;;;;;5.00;2.92;;;;;;;4.00;37.63;96276.22;5074788;28;20195;-81
2022/03/21 08:01:34;;;;;;;9.65;5.63;;;;;;;4.17;37.63;96271.66;5086944;28;20576;-81
2022/03/21 08:04:04;;;;;;;8.68;4.82;;;;;;;4.14;37.91;96277.50;5081378;28;20205;-79
2022/03/21 08:06:31;;;;;;;9.77;5.55;;;;;;;4.63;38.03;96272.28;5081367;28;20218;-82
2022/03/21 08:08:58;;;;;;;8.48;4.55;;;;;;;4.45;37.51;96261.81;5087379;28;20235;-76
2022/03/21 08:11:25;;;;;;;11.50;6.65;;;;;;;4.71;37.39;96266.44;5087446;28;20539;-81
2022/03/21 08:13:52;;;;;;;14.93;8.05;;;;;;;5.33;36.96;96256.09;5081320;28;20585;-81
2022/03/21 08:16:21;;;;;;;18.75;8.75;;;;;;;5.40;36.57;96257.78;5093992;28;20202;-79
2022/03/21 08:18:51;;;;;;;17.67;8.77;;;;;;;5.40;36.05;96266.66;5081871;28;20202;-78
2022/03/21 08:21:19;;;;;;;10.75;5.47;;;;;;;5.29;36.44;96249.63;5080575;28;20207;-79
2022/03/21 08:23:47;;;;;;;9.40;4.97;;;;;;;5.14;36.99;96265.59;5094298;28;20202;-79
2022/03/21 08:26:14;;;;;;;13.98;8.55;;;;;;;4.98;36.98;96264.63;5081097;28;20203;-79
2022/03/21 08:28:41;;;;;;;8.95;5.07;;;;;;;4.98;37.03;96267.31;5084576;28;20273;-78
2022/03/21 08:31:08;;;;;;;10.25;4.25;;;;;;;4.79;37.55;96268.69;5086989;28;20210;-80
2022/03/21 08:33:35;;;;;;;10.45;4.35;;;;;;;4.67;38.18;96259.94;5073542;28;20608;-82
2022/03/21 08:36:03;;;;;;;12.98;5.43;;;;;;;5.55;37.31;96249.88;5087528;28;20662;-79
2022/03/21 08:38:30;;;;;;;13.13;4.43;;;;;;;5.79;36.19;96250.31;5083874;28;20209;-78
2022/03/21 08:40:58;;;;;;;12.90;6.50;;;;;;;5.97;36.27;96249.97;5086467;28;20203;-80
2022/03/21 08:43:25;;;;;;;9.05;3.90;;;;;;;5.14;37.32;96260.22;5053232;28;20223;-81
2022/03/21 08:45:52;;;;;;;15.85;8.57;;;;;;;5.31;37.61;96249.38;5084439;28;20214;-78
2022/03/21 08:49:23;;;;;;;16.75;5.68;;;;;;;5.42;36.96;96245.72;5084709;28;20206;-83
2022/03/21 08:51:08;;;;;;;8.95;4.68;;;;;;;5.14;37.10;96270.16;5067604;28;20283;-75
2022/03/21 08:53:35;;;;;;;18.45;8.52;;;;;;;4.79;38.09;96247.22;5080286;28;20198;-79
2022/03/21 08:56:03;;;;;;;11.70;5.03;;;;;;;4.77;38.26;96249.34;5085743;28;20227;-76
2022/03/21 08:58:29;;;;;;;5.60;3.38;;;;;;;4.80;37.58;96240.78;5087102;28;20209;-81
2022/03/21 09:00:57;;;;;;;16.63;4.88;;;;;;;4.91;37.89;96244.41;5081197;28;20222;-81
2022/03/21 09:03:24;;;;;;;12.90;5.45;;;;;;;4.62;37.71;96278.69;5079947;28;20613;-82
2022/03/21 09:05:50;;;;;;;10.93;5.90;;;;;;;4.57;37.91;96259.84;5083576;28;20561;-78
2022/03/21 09:08:19;;;;;;;9.20;4.95;;;;;;;4.78;38.25;96248.31;5086589;28;20202;-77
2022/03/21 09:10:47;;;;;;;8.07;4.55;;;;;;;4.98;38.42;96239.66;5082389;28;20254;-79
2022/03/21 09:13:15;;;;;;;9.25;4.63;;;;;;;5.10;38.17;96247.56;5080047;28;20203;-80
2022/03/21 09:15:42;;;;;;;10.10;5.35;;;;;;;4.60;38.50;96273.56;5083799;28;20769;-81
2022/03/21 09:18:09;;;;;;;5.35;3.05;;;;;;;4.32;39.03;96251.47;5075776;28;20222;-77
2022/03/21 09:20:37;;;;;;;9.57;4.22;;;;;;;4.26;39.01;96255.94;5083603;28;20206;-79
2022/03/21 09:23:04;;;;;;;5.32;3.30;;;;;;;4.19;38.92;96264.16;5089882;28;20263;-78
2022/03/21 09:25:32;;;;;;;5.35;4.30;;;;;;;4.18;38.58;96257.19;5083229;28;20207;-80
2022/03/21 09:27:59;;;;;;;8.82;4.43;;;;;;;4.46;38.26;96242.81;5086900;28;20203;-82
2022/03/21 09:30:29;;;;;;;10.15;3.85;;;;;;;4.42;38.79;96251.59;5082707;28;20248;-78
2022/03/21 09:32:55;;;;;;;10.80;4.18;;;;;;;4.45;38.36;96243.84;5079398;28;20222;-78
2022/03/21 09:35:23;;;;;;;5.25;3.45;;;;;;;4.53;38.33;96232.69;5082009;28;20301;-77
2022/03/21 09:37:49;;;;;;;6.95;3.95;;;;;;;4.89;37.60;96235.78;5086607;28;20323;-77
2022/03/21 09:40:19;;;;;;;9.40;4.20;;;;;;;5.11;36.97;96239.25;5084102;28;20206;-78
2022/03/21 09:42:48;;;;;;;9.68;4.35;;;;;;;5.24;36.70;96243.41;5079557;28;20222;-76
2022/03/21 09:45:15;;;;;;;10.48;4.80;;;;;;;5.23;36.70;96242.59;5080185;28;20696;-75
2022/03/21 09:50:33;;;;;;;6.03;4.10;;;;;;;4.87;37.13;96244.09;5085580;28;20248;-79
2022/03/21 09:53:01;;;;;;;6.22;3.67;;;;;;;5.19;36.80;96236.13;5081549;28;20190;-79
2022/03/21 09:55:28;;;;;;;8.15;3.95;;;;;;;5.13;36.91;96241.69;5078870;28;20226;-76
2022/03/21 09:57:57;;;;;;;10.90;4.53;;;;;;;5.27;36.54;96222.22;5083305;28;20206;-77
2022/03/21 10:00:25;;;;;;;8.57;3.63;;;;;;;5.23;36.05;96245.28;5085808;28;20223;-75
2022/03/21 10:02:52;;;;;;;7.75;3.53;;;;;;;5.31;36.26;96230.59;5083273;28;20225;-81
2022/03/21 10:05:35;;;;;;;7.70;3.92;;;;;;;5.10;36.40;96220.69;5078859;28;20202;-80
2022/03/21 10:08:13;;;;;;;9.05;3.58;;;;;;;5.66;36.14;96225.50;5079899;28;20202;-80
2022/03/21 10:10:41;;;;;;;11.60;5.38;;;;;;;5.42;36.50;96228.78;5067897;28;20816;-80
2022/03/21 10:13:10;;;;;;;15.27;7.47;;;;;;;5.57;36.37;96227.06;5078875;28;20209;-81
2022/03/21 10:15:38;;;;;;;15.38;5.43;;;;;;;5.87;35.39;96226.47;5084129;28;20317;-80
2022/03/21 10:18:06;;;;;;;6.82;3.53;;;;;;;5.74;36.10;96220.72;5085002;28;20708;-79
2022/03/21 10:20:33;;;;;;;8.95;4.45;;;;;;;5.61;35.75;96217.38;5081283;28;20297;-81
2022/03/21 10:23:15;;;;;;;18.75;9.13;;;;;;;5.53;36.81;96236.69;5088284;28;20203;-78
2022/03/21 10:25:42;;;;;;;15.95;4.97;;;;;;;5.25;36.14;96231.59;5083036;28;20308;-79
2022/03/21 10:28:11;;;;;;;14.38;5.25;;;;;;;5.06;36.83;96223.06;5077661;28;20205;-77
2022/03/21 10:30:45;;;;;;;8.15;4.25;;;;;;;5.16;36.43;96238.50;5079108;28;20649;-79
2022/03/21 10:33:12;;;;;;;4.97;3.22;;;;;;;5.50;36.34;96209.50;5085341;28;20670;-79
2022/03/21 10:35:47;;;;;;;9.85;4.35;;;;;;;5.69;36.02;96203.50;5085309;28;20245;-78
2022/03/21 10:38:14;;;;;;;7.57;4.18;;;;;;;5.80;35.34;96219.69;5051783;28;20281;-79
2022/03/21 10:40:45;;;;;;;12.88;4.72;;;;;;;5.35;35.81;96216.38;5078020;28;20225;-78
2022/03/21 10:43:14;;;;;;;9.52;4.07;;;;;;;5.45;35.78;96201.41;5068381;28;20589;-78
2022/03/21 10:45:51;;;;;;;9.85;4.70;;;;;;;5.85;35.59;96214.34;5078332;28;20210;-79
2022/03/21 10:48:19;;;;;;;21.15;5.00;;;;;;;5.80;35.75;96198.19;5081246;28;20210;-80
2022/03/21 10:50:47;;;;;;;6.50;3.97;;;;;;;5.78;35.17;96189.56;5084493;28;20249;-78
2022/03/21 10:53:15;;;;;;;10.85;5.00;;;;;;;5.96;35.31;96191.88;5082790;28;20275;-79
2022/03/21 10:55:45;;;;;;;8.68;5.13;;;;;;;5.91;35.57;96186.44;5077905;28;20226;-81
2022/03/21 10:58:15;;;;;;;8.32;3.75;;;;;;;6.08;34.75;96168.25;5079255;28;20202;-79
2022/03/21 11:00:42;;;;;;;6.18;3.78;;;;;;;6.02;35.69;96180.84;5071170;28;20215;-82
2022/03/21 11:03:14;;;;;;;9.40;4.03;;;;;;;5.89;35.71;96181.31;5071376;28;20573;-76
2022/03/21 11:05:43;;;;;;;9.13;4.70;;;;;;;5.87;36.38;96171.88;5065529;28;20358;-76
2022/03/21 11:08:13;;;;;;;25.20;5.80;;;;;;;5.53;36.81;96172.19;5077911;28;20206;-73
2022/03/21 11:10:40;;;;;;;9.10;4.15;;;;;;;5.96;36.38;96178.41;5082957;28;20237;-78
2022/03/21 11:13:08;;;;;;;14.88;7.20;;;;;;;5.90;36.38;96160.63;5084547;28;20218;-79
2022/03/21 11:15:40;;;;;;;9.40;5.15;;;;;;;5.59;37.25;96165.78;5078966;28;20226;-77
2022/03/21 11:18:08;;;;;;;9.30;4.88;;;;;;;5.67;37.59;96162.59;5077275;28;20378;-79
2022/03/21 11:20:35;;;;;;;10.60;3.45;;;;;;;5.80;36.73;96160.53;5091352;28;20198;-77
2022/03/21 11:23:03;;;;;;;9.52;4.75;;;;;;;5.97;36.04;96150.44;5089681;28;20187;-77
2022/03/21 11:25:31;;;;;;;10.48;5.40;;;;;;;6.11;35.77;96146.22;5090875;28;20595;-76
2022/03/21 11:28:40;;;;;;;10.73;4.43;;;;;;;5.95;35.96;96161.47;5075961;28;20206;-77
2022/03/21 11:31:20;;;;;;;5.72;4.03;;;;;;;5.68;36.97;96150.78;5061635;28;20235;-77
2022/03/21 11:33:54;;;;;;;10.93;3.92;;;;;;;5.60;37.02;96167.38;5071140;28;20203;-78
2022/03/21 11:36:24;;;;;;;10.57;4.72;;;;;;;5.77;36.85;96140.34;5088903;28;20199;-79
2022/03/21 11:39:00;;;;;;;7.07;4.45;;;;;;;5.77;36.42;96144.91;5078896;28;20199;-76
2022/03/21 11:41:30;;;;;;;5.50;3.63;;;;;;;5.76;35.74;96132.53;5083080;28;20199;-76
2022/03/21 11:44:14;;;;;;;7.97;4.53;;;;;;;5.99;34.75;96124.91;5084314;28;20637;-78
2022/03/21 11:46:45;;;;;;;9.55;3.80;;;;;;;5.90;35.47;96122.97;5081676;28;20195;-75
2022/03/21 11:49:44;;;;;;;7.95;4.40;;;;;;;6.10;35.77;96125.78;5058483;28;20244;-78
2022/03/21 11:52:11;;;;;;;7.05;4.10;;;;;;;6.04;35.02;96113.34;5073435;28;20214;-74
2022/03/21 11:54:38;;;;;;;7.65;4.90;;;;;;;6.08;35.80;96125.22;5081398;28;20258;-78
2022/03/21 11:57:07;;;;;;;8.45;4.07;;;;;;;6.09;35.83;96116.06;5084272;28;20214;-76
2022/03/21 12:00:26;;;;;;;9.70;5.05;;;;;;;6.00;35.48;96107.72;5080874;28;20309;-79
2022/03/21 12:02:57;;;;;;;7.28;4.10;;;;;;;6.24;35.16;96126.91;5071815;28;20195;-78
2022/03/21 12:05:52;;;;;;;11.30;6.70;;;;;;;6.12;34.87;96104.81;5076880;28;20575;-79